createdAt,value
2022-08-03T00:01:27.637Z,63.53
2022-08-03T00:03:54.634Z,63.70
2022-08-03T00:06:21.136Z,64.28
2022-08-03T00:08:47.642Z,64.31
2022-08-03T00:11:14.229Z,64.12
2022-08-03T00:13:40.798Z,64.10
2022-08-03T00:16:07.561Z,64.58
2022-08-03T00:18:34.236Z,64.91
2022-08-03T00:21:01.106Z,65.48
2022-08-03T00:23:31.738Z,65.71
2022-08-03T00:26:14.329Z,66.18
2022-08-03T00:28:40.901Z,66.38
2022-08-03T00:31:08.149Z,67.04
2022-08-03T00:33:58.320Z,66.97
2022-08-03T00:36:27.240Z,67.33
2022-08-03T00:38:53.789Z,67.67
2022-08-03T00:41:20.429Z,68.11
2022-08-03T00:43:47.744Z,67.71
2022-08-03T00:46:19.256Z,67.85
2022-08-03T00:48:53.156Z,67.66
2022-08-03T00:51:22.069Z,67.79
2022-08-03T00:53:49.741Z,68.29
2022-08-03T00:56:17.616Z,68.57
2022-08-03T00:58:45.487Z,69.12
2022-08-03T01:01:12.587Z,69.40
2022-08-03T01:03:39.803Z,69.58
2022-08-03T01:06:15.529Z,70.09
2022-08-03T01:09:05.220Z,69.97
2022-08-03T01:12:00.811Z,70.30
2022-08-03T01:14:46.158Z,70.51
2022-08-03T01:17:21.450Z,70.76
2022-08-03T01:20:00.605Z,70.81
2022-08-03T01:23:00.705Z,71.33
2022-08-03T01:25:59.785Z,71.30
2022-08-03T01:28:47.971Z,71.40
2022-08-03T01:31:18.720Z,71.70
2022-08-03T01:33:52.759Z,71.87
2022-08-03T01:36:23.317Z,72.14
2022-08-03T01:38:54.534Z,72.08
2022-08-03T01:41:33.671Z,72.40
2022-08-03T01:44:29.336Z,72.49
2022-08-03T01:46:51.565Z,72.34
2022-08-03T01:49:18.764Z,72.47
2022-08-03T01:51:58.636Z,72.55
2022-08-03T01:54:36.630Z,72.66
2022-08-03T01:57:04.569Z,72.88
2022-08-03T01:59:34.528Z,72.93
2022-08-03T02:02:15.494Z,72.94
2022-08-03T02:04:50.429Z,73.22
2022-08-03T02:07:17.640Z,73.01
2022-08-03T02:09:46.933Z,73.41
2022-08-03T02:12:15.302Z,73.86
2022-08-03T02:14:44.306Z,73.91
2022-08-03T02:17:12.761Z,74.33
2022-08-03T02:19:41.916Z,74.21
2022-08-03T02:22:11.924Z,74.41
2022-08-03T02:24:38.906Z,74.37
2022-08-03T02:27:12.334Z,74.47
2022-08-03T02:29:41.181Z,74.46
2022-08-03T02:32:14.694Z,74.46
2022-08-03T02:34:45.191Z,74.34
2022-08-03T02:37:13.590Z,74.33
2022-08-03T02:39:42.862Z,74.13
2022-08-03T02:42:12.850Z,73.87
2022-08-03T02:44:43.848Z,73.78
2022-08-03T02:47:13.080Z,73.77
2022-08-03T02:49:50.556Z,73.90
2022-08-03T02:52:21.503Z,73.93
2022-08-03T02:54:51.134Z,74.05
2022-08-03T02:57:19.894Z,73.99
2022-08-03T02:59:47.416Z,74.08
2022-08-03T03:02:16.944Z,74.35
2022-08-03T03:05:51.538Z,74.41
2022-08-03T03:07:33.990Z,74.59
2022-08-03T03:10:17.830Z,74.86
2022-08-03T03:12:46.781Z,75.00
2022-08-03T03:15:13.351Z,75.17
2022-08-03T03:17:41.907Z,75.21
2022-08-03T03:20:09.135Z,75.22
2022-08-03T03:22:36.526Z,75.30
2022-08-03T03:25:03.594Z,75.50
2022-08-03T03:27:30.557Z,75.62
2022-08-03T03:29:59.163Z,75.83
2022-08-03T03:32:30.194Z,75.90
2022-08-03T03:35:00.211Z,76.22
2022-08-03T03:37:27.259Z,76.33
2022-08-03T03:39:54.800Z,76.69
2022-08-03T03:42:21.793Z,76.67
2022-08-03T03:44:48.577Z,76.96
2022-08-03T03:47:15.160Z,77.04
2022-08-03T03:49:43.927Z,77.08
2022-08-03T03:52:10.792Z,77.33
2022-08-03T03:54:44.816Z,77.42
2022-08-03T03:57:12.914Z,77.37
2022-08-03T03:59:43.445Z,77.61
2022-08-03T04:02:11.657Z,77.73
2022-08-03T04:04:57.670Z,77.87
2022-08-03T04:07:45.222Z,78.00
2022-08-03T04:10:42.414Z,78.15
2022-08-03T04:13:12.273Z,78.25
2022-08-03T04:15:40.023Z,78.51
2022-08-03T04:18:08.905Z,78.78
2022-08-03T04:20:38.935Z,78.63
2022-08-03T04:23:13.621Z,78.72
2022-08-03T04:25:43.898Z,78.87
2022-08-03T04:28:30.899Z,79.03
2022-08-03T04:30:59.985Z,79.21
2022-08-03T04:33:29.624Z,79.23
2022-08-03T04:36:02.825Z,79.26
2022-08-03T04:38:32.825Z,79.05
2022-08-03T04:41:01.051Z,78.53
2022-08-03T04:43:28.270Z,77.92
2022-08-03T04:45:55.904Z,77.41
2022-08-03T04:48:22.830Z,77.12
2022-08-03T04:50:49.522Z,76.84
2022-08-03T04:53:17.508Z,76.46
2022-08-03T04:55:44.268Z,76.40
2022-08-03T04:58:10.859Z,76.22
2022-08-03T05:00:37.396Z,76.08
2022-08-03T05:03:04.005Z,75.96
2022-08-03T05:05:50.354Z,75.71
2022-08-03T05:08:20.567Z,75.42
2022-08-03T05:10:54.735Z,75.23
2022-08-03T05:13:21.277Z,74.86
2022-08-03T05:15:47.810Z,74.56
2022-08-03T05:18:14.541Z,74.69
2022-08-03T05:20:41.429Z,74.48
2022-08-03T05:23:08.054Z,74.46
2022-08-03T05:25:34.662Z,73.98
2022-08-03T05:28:01.614Z,73.50
2022-08-03T05:30:33.577Z,73.03
2022-08-03T05:33:01.806Z,72.95
2022-08-03T05:36:01.459Z,72.82
2022-08-03T05:38:23.784Z,72.71
2022-08-03T05:40:57.561Z,72.48
2022-08-03T05:43:41.742Z,71.87
2022-08-03T05:46:11.917Z,71.77
2022-08-03T05:48:39.437Z,71.50
2022-08-03T05:51:07.742Z,71.45
2022-08-03T05:53:34.729Z,71.30
2022-08-03T05:56:03.397Z,71.35
2022-08-03T05:58:40.081Z,70.59
2022-08-03T06:01:06.741Z,70.31
2022-08-03T06:03:33.353Z,70.20
2022-08-03T06:06:00.451Z,70.20
2022-08-03T06:08:27.219Z,68.47
2022-08-03T06:10:53.784Z,67.99
2022-08-03T06:13:20.247Z,67.75
2022-08-03T06:15:46.755Z,67.23
2022-08-03T06:18:13.355Z,67.70
2022-08-03T06:20:39.874Z,67.53
2022-08-03T06:23:07.506Z,67.20
2022-08-03T06:25:34.035Z,66.50
2022-08-03T06:28:00.923Z,65.67
2022-08-03T06:30:27.527Z,65.67
2022-08-03T06:32:53.997Z,65.66
2022-08-03T06:35:20.879Z,65.79
2022-08-03T06:37:49.811Z,64.61
2022-08-03T06:40:21.896Z,64.39
2022-08-03T06:42:51.430Z,64.06
2022-08-03T06:45:18.185Z,62.54
2022-08-03T06:47:44.707Z,62.90
2022-08-03T06:50:16.335Z,62.71
2022-08-03T06:52:44.485Z,62.38
2022-08-03T06:55:11.473Z,60.94
2022-08-03T06:57:37.998Z,61.25
2022-08-03T07:00:07.495Z,61.53
2022-08-03T07:02:39.822Z,61.49
2022-08-03T07:05:07.592Z,61.45
2022-08-03T07:07:34.400Z,61.12
2022-08-03T07:10:00.953Z,60.75
2022-08-03T07:12:30.335Z,57.70
2022-08-03T07:15:01.408Z,58.37
2022-08-03T07:17:34.698Z,57.62
2022-08-03T07:20:03.732Z,56.94
2022-08-03T07:22:30.246Z,56.19
2022-08-03T07:24:57.137Z,56.48
2022-08-03T07:27:23.770Z,56.59
2022-08-03T07:29:50.492Z,56.64
2022-08-03T07:32:17.332Z,56.78
2022-08-03T07:34:44.003Z,56.89
2022-08-03T07:37:11.333Z,55.73
2022-08-03T07:39:37.910Z,55.70
2022-08-03T07:42:04.482Z,55.48
2022-08-03T07:44:30.937Z,55.51
2022-08-03T07:46:57.789Z,56.17
2022-08-03T07:49:24.930Z,56.22
2022-08-03T07:52:11.738Z,54.69
2022-08-03T07:54:39.180Z,55.75
2022-08-03T07:57:05.702Z,55.40
2022-08-03T07:59:56.423Z,54.43
2022-08-03T08:02:19.225Z,54.68
2022-08-03T08:04:45.742Z,54.46
2022-08-03T08:07:12.256Z,53.65
2022-08-03T08:09:38.924Z,53.22
2022-08-03T08:12:05.937Z,53.04
2022-08-03T08:14:42.495Z,53.08
2022-08-03T08:17:08.984Z,51.98
2022-08-03T08:19:36.808Z,53.03
2022-08-03T08:22:07.999Z,52.79
2022-08-03T08:24:36.948Z,52.00
2022-08-03T08:27:03.497Z,52.10
2022-08-03T08:29:31.097Z,52.36
2022-08-03T08:31:57.581Z,51.26
2022-08-03T08:34:24.117Z,51.17
2022-08-03T08:36:50.565Z,51.35
2022-08-03T08:39:17.610Z,50.67
2022-08-03T08:41:46.430Z,50.98
2022-08-03T08:44:14.523Z,50.00
2022-08-03T08:46:41.322Z,49.83
2022-08-03T08:49:09.728Z,50.69
2022-08-03T08:51:54.827Z,49.38
2022-08-03T08:54:26.955Z,49.62
2022-08-03T08:56:56.331Z,49.31
2022-08-03T08:59:24.181Z,49.43
2022-08-03T09:01:50.685Z,49.54
2022-08-03T09:04:17.668Z,49.41
2022-08-03T09:06:58.657Z,48.99
2022-08-03T09:10:08.397Z,48.68
2022-08-03T09:12:39.047Z,48.11
2022-08-03T09:15:25.365Z,48.26
2022-08-03T09:17:54.712Z,48.10
2022-08-03T09:20:23.089Z,48.26
2022-08-03T09:23:19.143Z,47.19
2022-08-03T09:25:59.810Z,47.11
2022-08-03T09:28:56.477Z,47.41
2022-08-03T09:31:39.653Z,47.45
2022-08-03T09:34:11.840Z,46.68
2022-08-03T09:36:49.560Z,46.14
2022-08-03T09:39:18.466Z,46.95
2022-08-03T09:41:48.174Z,46.46
2022-08-03T09:44:25.483Z,47.37
2022-08-03T09:46:56.526Z,47.75
2022-08-03T09:49:24.297Z,47.30
2022-08-03T09:52:31.834Z,46.93
2022-08-03T09:54:38.164Z,47.45
2022-08-03T09:57:04.834Z,47.66
2022-08-03T09:59:33.701Z,47.15
2022-08-03T10:02:00.862Z,47.35
2022-08-03T10:04:28.389Z,46.26
2022-08-03T10:07:11.304Z,45.91
2022-08-03T10:09:38.226Z,46.51
2022-08-03T10:12:13.244Z,45.64
2022-08-03T10:14:42.083Z,45.17
2022-08-03T10:17:09.570Z,45.74
2022-08-03T10:19:36.523Z,45.29
2022-08-03T10:22:15.307Z,45.44
2022-08-03T10:25:16.449Z,44.48
2022-08-03T10:27:51.021Z,45.08
2022-08-03T10:30:17.688Z,45.57
2022-08-03T10:32:52.413Z,43.93
2022-08-03T10:35:21.695Z,44.89
2022-08-03T10:37:56.485Z,44.90
2022-08-03T10:40:46.863Z,44.95
2022-08-03T10:43:21.476Z,43.64
2022-08-03T10:45:48.199Z,43.77
2022-08-03T10:48:16.392Z,43.17
2022-08-03T10:50:44.133Z,43.29
2022-08-03T10:53:10.666Z,43.33
2022-08-03T10:56:03.939Z,43.15
2022-08-03T10:58:57.068Z,43.93
2022-08-03T11:01:59.525Z,43.35
2022-08-03T11:04:29.377Z,43.12
2022-08-03T11:07:21.920Z,42.92
2022-08-03T11:09:53.685Z,42.85
2022-08-03T11:12:30.116Z,42.20
2022-08-03T11:15:01.313Z,42.51
2022-08-03T11:17:28.021Z,42.61
2022-08-03T11:19:57.692Z,43.07
2022-08-03T11:22:25.127Z,41.90
2022-08-03T11:24:53.984Z,41.58
2022-08-03T11:27:22.440Z,41.23
2022-08-03T11:30:09.553Z,41.77
2022-08-03T11:32:46.720Z,41.38
2022-08-03T11:35:33.611Z,41.52
2022-08-03T11:38:03.377Z,41.20
2022-08-03T11:40:45.749Z,41.29
2022-08-03T11:43:31.962Z,40.92
2022-08-03T11:46:13.654Z,40.86
2022-08-03T11:49:05.343Z,40.62
2022-08-03T11:51:37.974Z,40.26
2022-08-03T11:54:06.288Z,40.38
2022-08-03T11:56:45.792Z,40.39
2022-08-03T11:59:19.909Z,39.89
2022-08-03T12:01:47.611Z,39.56
2022-08-03T12:04:16.162Z,39.78
2022-08-03T12:06:58.322Z,40.35
2022-08-03T12:09:25.010Z,38.16
2022-08-03T12:11:59.867Z,37.40
2022-08-03T12:14:49.277Z,38.15
2022-08-03T12:17:15.087Z,39.17
2022-08-03T12:19:42.862Z,38.83
2022-08-03T12:22:09.436Z,37.29
2022-08-03T12:24:43.268Z,38.20
2022-08-03T12:27:09.888Z,38.85
2022-08-03T12:29:36.827Z,38.04
2022-08-03T12:32:03.552Z,38.12
2022-08-03T12:34:47.572Z,39.42
2022-08-03T12:37:22.278Z,38.88
2022-08-03T12:40:07.860Z,36.38
2022-08-03T12:42:39.249Z,37.20
2022-08-03T12:45:27.144Z,37.70
2022-08-03T12:48:02.052Z,36.65
2022-08-03T12:50:31.857Z,36.47
2022-08-03T12:53:00.088Z,38.03
2022-08-03T12:55:57.785Z,38.86
2022-08-03T12:58:34.554Z,38.71
2022-08-03T13:01:05.263Z,39.08
2022-08-03T13:03:42.205Z,39.10
2022-08-03T13:06:21.081Z,38.88
2022-08-03T13:08:48.949Z,39.87
2022-08-03T13:11:20.544Z,38.98
2022-08-03T13:13:47.134Z,38.60
2022-08-03T13:16:18.997Z,38.78
2022-08-03T13:18:46.594Z,38.12
2022-08-03T13:21:18.984Z,38.69
2022-08-03T13:23:46.316Z,37.98
2022-08-03T13:26:13.481Z,38.48
2022-08-03T13:28:40.274Z,38.50
2022-08-03T13:31:07.139Z,38.11
2022-08-03T13:33:33.888Z,37.97
2022-08-03T13:36:00.404Z,38.55
2022-08-03T13:38:27.311Z,38.13
2022-08-03T13:40:55.170Z,37.92
2022-08-03T13:43:22.504Z,37.76
2022-08-03T13:45:53.514Z,36.75
2022-08-03T13:48:36.649Z,37.20
2022-08-03T13:51:21.758Z,37.59
2022-08-03T13:53:50.795Z,38.13
2022-08-03T13:56:17.318Z,37.57
2022-08-03T13:58:43.915Z,38.65
2022-08-03T14:01:11.234Z,38.27
2022-08-03T14:03:37.812Z,37.13
2022-08-03T14:06:04.619Z,37.20
2022-08-03T14:08:31.956Z,36.57
2022-08-03T14:10:58.622Z,36.22
2022-08-03T14:13:25.205Z,35.78
2022-08-03T14:15:51.931Z,36.09
2022-08-03T14:18:28.270Z,34.97
2022-08-03T14:21:01.981Z,36.24
2022-08-03T14:23:32.584Z,34.38
2022-08-03T14:25:59.649Z,35.25
2022-08-03T14:28:26.152Z,34.84
2022-08-03T14:30:53.992Z,35.24
2022-08-03T14:33:20.891Z,35.60
2022-08-03T14:35:48.203Z,36.08
2022-08-03T14:38:15.580Z,35.90
2022-08-03T14:40:42.191Z,34.31
2022-08-03T14:43:08.851Z,34.98
2022-08-03T14:45:35.420Z,36.01
2022-08-03T14:50:33.784Z,35.34
2022-08-03T14:50:51.820Z,35.28
2022-08-03T14:53:19.393Z,34.89
2022-08-03T14:55:49.863Z,34.82
2022-08-03T14:58:22.417Z,34.72
2022-08-03T15:00:50.836Z,34.33
2022-08-03T15:03:21.490Z,34.47
2022-08-03T15:05:48.132Z,34.38
2022-08-03T15:08:14.717Z,33.78
2022-08-03T15:10:45.279Z,34.89
2022-08-03T15:13:12.982Z,33.92
2022-08-03T15:15:39.763Z,33.45
2022-08-03T15:18:06.711Z,32.61
2022-08-03T15:20:43.965Z,33.08
2022-08-03T15:23:12.838Z,33.07
2022-08-03T15:26:29.083Z,33.64
2022-08-03T15:28:26.085Z,33.63
2022-08-03T15:30:53.037Z,33.56
2022-08-03T15:33:19.726Z,34.15
2022-08-03T15:35:47.424Z,33.91
2022-08-03T15:38:13.947Z,33.11
2022-08-03T15:40:40.538Z,32.61
2022-08-03T15:43:07.334Z,33.05
2022-08-03T15:45:36.153Z,33.92
2022-08-03T15:48:06.429Z,34.08
2022-08-03T15:50:32.974Z,34.44
2022-08-03T15:52:59.579Z,34.39
2022-08-03T15:55:26.231Z,34.46
2022-08-03T15:59:03.480Z,33.24
2022-08-03T16:00:40.492Z,33.09
2022-08-03T16:03:07.058Z,33.24
2022-08-03T16:05:34.162Z,32.04
2022-08-03T16:08:03.770Z,31.64
2022-08-03T16:10:31.965Z,32.27
2022-08-03T16:13:00.112Z,32.89
2022-08-03T16:15:27.548Z,32.31
2022-08-03T16:17:54.657Z,32.49
2022-08-03T16:20:33.922Z,32.95
2022-08-03T16:23:10.515Z,32.86
2022-08-03T16:25:39.188Z,33.16
2022-08-03T16:28:12.783Z,32.85
2022-08-03T16:30:41.720Z,33.10
2022-08-03T16:33:08.494Z,33.05
2022-08-03T16:35:35.089Z,32.74
2022-08-03T16:38:03.561Z,33.04
2022-08-03T16:40:33.379Z,33.45
2022-08-03T16:42:59.887Z,33.11
2022-08-03T16:45:26.472Z,33.46
2022-08-03T16:48:01.827Z,33.36
2022-08-03T16:50:33.074Z,33.90
2022-08-03T16:52:59.679Z,34.44
2022-08-03T16:55:48.496Z,34.14
2022-08-03T16:58:15.148Z,33.69
2022-08-03T17:00:43.018Z,34.13
2022-08-03T17:03:19.135Z,34.39
2022-08-03T17:05:50.874Z,35.92
2022-08-03T17:08:26.969Z,36.26
2022-08-03T17:10:55.312Z,35.78
2022-08-03T17:13:40.011Z,36.81
2022-08-03T17:16:10.044Z,37.11
2022-08-03T17:18:47.347Z,36.67
2022-08-03T17:21:15.915Z,37.63
2022-08-03T17:24:12.357Z,38.37
2022-08-03T17:26:46.045Z,38.65
2022-08-03T17:29:18.878Z,37.41
2022-08-03T17:31:53.134Z,38.43
2022-08-03T17:34:21.022Z,38.28
2022-08-03T17:37:27.200Z,36.47
2022-08-03T17:39:58.283Z,37.23
2022-08-03T17:42:30.851Z,36.94
2022-08-03T17:45:07.311Z,38.65
2022-08-03T17:47:42.073Z,38.35
2022-08-03T17:50:25.203Z,38.13
2022-08-03T17:53:07.277Z,39.01
2022-08-03T17:55:55.829Z,40.05
2022-08-03T17:58:33.700Z,40.68
2022-08-03T18:01:58.314Z,41.96
2022-08-03T18:04:11.088Z,42.23
2022-08-03T18:06:56.406Z,42.17
2022-08-03T18:10:04.315Z,41.96
2022-08-03T18:12:25.012Z,42.60
2022-08-03T18:15:08.406Z,43.30
2022-08-03T18:17:55.683Z,44.53
2022-08-03T18:20:34.271Z,44.63
2022-08-03T18:23:09.586Z,45.15
2022-08-03T18:25:44.966Z,44.73
2022-08-03T18:28:16.542Z,45.19
2022-08-03T18:30:53.147Z,45.42
2022-08-03T18:34:19.271Z,45.85
2022-08-03T18:36:18.033Z,46.12
2022-08-03T18:38:51.705Z,46.13
2022-08-03T18:41:32.224Z,46.90
2022-08-03T18:44:08.496Z,47.31
2022-08-03T18:46:50.730Z,47.81
2022-08-03T18:49:54.030Z,48.58
2022-08-03T18:53:02.599Z,48.65
2022-08-03T18:55:33.513Z,49.58
2022-08-03T18:58:17.963Z,49.93
2022-08-03T19:01:01.035Z,50.19
2022-08-03T19:03:42.981Z,50.57
2022-08-03T19:06:19.867Z,50.94
2022-08-03T19:09:00.429Z,51.63
2022-08-03T19:12:12.363Z,52.26
2022-08-03T19:14:44.309Z,52.72
2022-08-03T19:17:12.059Z,53.38
2022-08-03T19:19:44.885Z,53.97
2022-08-03T19:22:15.986Z,54.06
2022-08-03T19:24:47.019Z,54.43
2022-08-03T19:27:14.245Z,55.20
2022-08-03T19:29:58.398Z,55.53
2022-08-03T19:32:31.994Z,55.52
2022-08-03T19:35:03.855Z,55.60
2022-08-03T19:37:38.164Z,55.45
2022-08-03T19:40:10.783Z,55.70
2022-08-03T19:42:44.671Z,56.38
2022-08-03T19:45:15.426Z,56.90
2022-08-03T19:47:52.342Z,57.45
2022-08-03T19:50:20.387Z,57.85
2022-08-03T19:52:49.691Z,58.16
2022-08-03T19:55:18.003Z,58.26
2022-08-03T19:57:49.395Z,57.98
2022-08-03T20:00:19.470Z,58.53
2022-08-03T20:02:46.485Z,58.58
2022-08-03T20:05:15.268Z,59.37
2022-08-03T20:07:47.473Z,59.97
2022-08-03T20:10:16.141Z,59.95
2022-08-03T20:12:44.606Z,60.19
2022-08-03T20:15:12.013Z,60.54
2022-08-03T20:17:54.970Z,60.64
2022-08-03T20:20:35.932Z,61.08
2022-08-03T20:23:25.767Z,61.16
2022-08-03T20:26:05.084Z,61.76
2022-08-03T20:28:50.060Z,62.33
2022-08-03T20:31:18.908Z,62.71
2022-08-03T20:33:49.187Z,62.65
2022-08-03T20:36:17.747Z,62.49
2022-08-03T20:38:47.284Z,62.91
2022-08-03T20:41:15.832Z,63.43
2022-08-03T20:43:42.409Z,63.70
2022-08-03T20:46:29.584Z,63.73
2022-08-03T20:48:58.892Z,63.67
2022-08-03T20:51:49.896Z,63.52
2022-08-03T20:54:22.448Z,63.85
2022-08-03T20:56:56.721Z,63.75
2022-08-03T20:59:24.460Z,63.80
2022-08-03T21:01:50.992Z,63.75
2022-08-03T21:04:20.949Z,64.00
2022-08-03T21:07:03.488Z,64.33
2022-08-03T21:09:57.049Z,64.94
2022-08-03T21:12:34.890Z,65.01
2022-08-03T21:15:07.580Z,65.29
2022-08-03T21:17:41.996Z,65.24
2022-08-03T21:20:11.335Z,65.88
2022-08-03T21:22:39.788Z,66.14
2022-08-03T21:25:09.382Z,66.44
2022-08-03T21:27:36.729Z,66.72
2022-08-03T21:30:07.329Z,66.73
2022-08-03T21:32:34.292Z,66.75
2022-08-03T21:35:01.338Z,67.21
2022-08-03T21:37:28.690Z,67.58
2022-08-03T21:39:56.480Z,67.94
2022-08-03T21:42:23.990Z,68.38
2022-08-03T21:44:54.014Z,68.57
2022-08-03T21:47:22.719Z,68.67
2022-08-03T21:50:08.548Z,69.21
2022-08-03T21:52:41.986Z,68.55
2022-08-03T21:55:18.434Z,68.82
2022-08-03T21:57:52.905Z,68.96
2022-08-03T22:00:22.112Z,69.18
2022-08-03T22:02:55.506Z,69.63
2022-08-03T22:05:28.100Z,70.42
2022-08-03T22:08:09.691Z,70.69
2022-08-03T22:10:36.906Z,71.18
2022-08-03T22:13:03.574Z,71.82
2022-08-03T22:15:30.862Z,72.17
2022-08-03T22:17:58.792Z,72.47
2022-08-03T22:20:25.599Z,72.75
2022-08-03T22:22:58.951Z,73.31
2022-08-03T22:25:29.059Z,73.36
2022-08-03T22:27:57.699Z,73.40
2022-08-03T22:30:24.582Z,73.86
2022-08-03T22:32:53.791Z,74.15
2022-08-03T22:35:21.320Z,74.30
2022-08-03T22:37:53.977Z,74.46
2022-08-03T22:40:21.164Z,74.83
2022-08-03T22:42:50.599Z,75.13
2022-08-03T22:46:06.228Z,75.28
2022-08-03T22:48:07.742Z,75.21
2022-08-03T22:50:35.141Z,75.39
2022-08-03T22:53:02.290Z,75.28
2022-08-03T22:55:29.241Z,75.65
2022-08-03T22:57:56.496Z,75.69
2022-08-03T23:00:23.650Z,75.73
2022-08-03T23:02:51.285Z,75.97
2022-08-03T23:06:00.305Z,76.47
2022-08-03T23:08:14.532Z,76.70
2022-08-03T23:10:46.755Z,76.93
2022-08-03T23:13:17.367Z,76.95
2022-08-03T23:15:49.618Z,77.21
2022-08-03T23:18:18.428Z,77.36
2022-08-03T23:20:45.232Z,77.76
2022-08-03T23:23:14.589Z,77.74
2022-08-03T23:25:47.667Z,77.76
2022-08-03T23:28:16.167Z,77.96
2022-08-03T23:30:44.505Z,77.87
2022-08-03T23:33:15.793Z,77.87
2022-08-03T23:36:20.090Z,78.16
2022-08-03T23:38:46.153Z,78.26
2022-08-03T23:41:13.612Z,78.34
2022-08-03T23:43:51.353Z,78.48
2022-08-03T23:46:21.991Z,78.69
2022-08-03T23:48:48.611Z,78.79
2022-08-03T23:51:36.594Z,79.19
2022-08-03T23:54:28.132Z,79.49
2022-08-03T23:57:03.249Z,79.40
2022-08-03T23:59:59.496Z,79.65
